This is the latest recevied weather packets stored in our database for station/object 9W2CEW-1. If no packets are shown the sender has not sent any weather packets the latest 10 day(s).
| Time | Temp. | Humidity | Pressure | Rain* | Wind** | Luminosity | Snow |
|---|---|---|---|---|---|---|---|
| 1777979263 | 33.89° C | 62% | 1000.9 hPa | - | - | - | - |
| 1777979051 | 34.44° C | 63% | 1001.3 hPa | - | - | - | - |
| 1777978151 | 35° C | 60% | 1001.1 hPa | - | - | - | - |
| 1777977251 | 33.89° C | 62% | 1000.9 hPa | - | - | - | - |
| 1777976351 | 34.44° C | 62% | 1000.6 hPa | - | - | - | - |
| 1777975450 | 34.44° C | 60% | 1000.7 hPa | - | - | - | - |
| 1777974739 | 33.33° C | 64% | 1000.8 hPa | - | - | - | - |
| 1777974551 | 33.33° C | 64% | 1000.8 hPa | - | - | - | - |
| 1777973660 | 32.78° C | 66% | 1000.7 hPa | - | - | - | - |
| 1777972750 | 31.67° C | 72% | 1000.6 hPa | - | - | - | - |
| 1777971850 | 31.11° C | 75% | 1000.8 hPa | - | - | - | - |
| 1777971136 | 30.56° C | 76% | 1000.8 hPa | - | - | - | - |
| 1777970081 | 29.44° C | 81% | 1001 hPa | - | - | - | - |
| 1777970050 | 29.44° C | 81% | 1001 hPa | - | - | - | - |
| 1777969150 | 29.44° C | 77% | 1000.8 hPa | - | - | - | - |
| 1777968251 | 30° C | 67% | 1000.7 hPa | - | - | - | - |
| 1777967443 | 33.33° C | 59% | 1000.5 hPa | - | - | - | - |
| 1777967351 | 33.33° C | 59% | 1000.5 hPa | - | - | - | - |
| 1777966451 | 35° C | 55% | 1000.1 hPa | - | - | - | - |
| 1777965553 | 34.44° C | 54% | 1000.5 hPa | - | - | - | - |
| 1777964738 | 36.11° C | 51% | 1000.6 hPa | - | - | - | - |
| 1777964651 | 36.11° C | 51% | 1000.6 hPa | - | - | - | - |
| 1777964407 | 37.22° C | 48% | 1001 hPa | - | - | - | - |
| 1777963936 | 36.11° C | 49% | 1001.3 hPa | - | - | - | - |
| 1777963751 | 37.22° C | 48% | 1001 hPa | - | - | - | - |
* Rain since midnight (hover to see other rain measurements)
** Current wind speed in m/s (hover to see current wind gust speed)